createdAt,value
2019-04-29T00:00:07.699Z,100827.15
2019-04-29T00:05:10.186Z,100820.11
2019-04-29T00:10:15.471Z,100818.80
2019-04-29T00:15:33.573Z,100809.38
2019-04-29T00:20:46.438Z,100814.56
2019-04-29T00:25:48.738Z,100822.29
2019-04-29T00:30:50.805Z,100814.95
2019-04-29T00:35:52.991Z,100818.55
2019-04-29T00:41:13.077Z,100804.38
2019-04-29T00:46:15.234Z,100803.88
2019-04-29T00:51:17.315Z,100795.00
2019-04-29T00:56:19.985Z,100799.67
2019-04-29T01:01:24.421Z,100796.08
2019-04-29T01:06:26.463Z,100799.17
2019-04-29T01:11:28.510Z,100802.77
2019-04-29T01:16:30.541Z,100805.05
2019-04-29T01:21:32.627Z,100802.81
2019-04-29T01:27:12.423Z,100795.28
2019-04-29T01:32:14.453Z,100792.18
2019-04-29T01:37:16.549Z,100789.95
2019-04-29T01:42:31.174Z,100793.31
2019-04-29T01:47:33.215Z,100791.19
2019-04-29T01:52:35.273Z,100796.91
2019-04-29T01:57:37.347Z,100795.41
2019-04-29T02:02:39.460Z,100795.30
2019-04-29T02:07:41.517Z,100787.22
2019-04-29T02:12:43.706Z,100792.75
2019-04-29T02:17:45.733Z,100786.23
2019-04-29T02:23:07.396Z,100790.67
2019-04-29T02:28:14.877Z,100793.00
2019-04-29T02:33:16.924Z,100790.17
2019-04-29T02:38:30.111Z,100797.47
2019-04-29T02:43:34.096Z,100784.61
2019-04-29T02:48:36.130Z,100780.33
2019-04-29T02:53:38.212Z,100784.11
2019-04-29T02:58:46.803Z,100775.55
2019-04-29T03:03:57.782Z,100778.40
2019-04-29T03:08:59.824Z,100772.18
2019-04-29T03:14:01.982Z,100764.23
2019-04-29T03:19:08.865Z,100758.23
2019-04-29T03:24:10.953Z,100747.12
2019-04-29T03:29:21.948Z,100751.60
2019-04-29T03:34:24.035Z,100750.79
2019-04-29T03:39:26.082Z,100753.27
2019-04-29T03:44:28.167Z,100748.63
2019-04-29T03:49:30.247Z,100746.27
2019-04-29T03:54:32.452Z,100740.21
2019-04-29T03:59:34.638Z,100738.13
2019-04-29T04:04:57.508Z,100728.20
2019-04-29T04:09:59.579Z,100727.92
2019-04-29T04:15:01.629Z,100726.77
2019-04-29T04:20:04.512Z,100724.83
2019-04-29T04:25:06.580Z,100723.37
2019-04-29T04:30:08.926Z,100728.50
2019-04-29T04:35:11.669Z,100730.97
2019-04-29T04:40:17.010Z,100731.40
2019-04-29T04:45:19.190Z,100734.12
2019-04-29T04:50:21.259Z,100733.84
2019-04-29T04:55:26.529Z,100730.62
2019-04-29T05:00:30.492Z,100733.72
2019-04-29T05:05:32.561Z,100726.61
2019-04-29T05:10:34.618Z,100737.12
2019-04-29T05:15:36.687Z,100732.03
2019-04-29T05:20:38.792Z,100736.86
2019-04-29T05:25:40.867Z,100729.14
2019-04-29T05:30:42.888Z,100719.88
2019-04-29T05:36:01.904Z,100715.65
2019-04-29T05:41:03.396Z,100710.27
2019-04-29T05:46:31.075Z,100707.91
2019-04-29T05:51:42.999Z,100721.89
2019-04-29T05:56:45.027Z,100715.73
2019-04-29T06:01:48.905Z,100713.61
2019-04-29T06:06:51.171Z,100704.52
2019-04-29T06:11:53.254Z,100707.47
2019-04-29T06:16:57.581Z,100708.44
2019-04-29T06:21:59.335Z,100709.57
2019-04-29T06:27:01.563Z,100703.02
2019-04-29T06:32:03.615Z,100697.94
2019-04-29T06:37:05.828Z,100689.41
2019-04-29T06:42:08.015Z,100692.20
2019-04-29T06:47:10.169Z,100691.79
2019-04-29T06:52:12.274Z,100688.89
2019-04-29T06:57:14.330Z,100696.28
2019-04-29T07:02:16.397Z,100689.98
2019-04-29T07:07:18.482Z,100691.61
2019-04-29T07:12:20.573Z,100685.98
2019-04-29T07:17:22.645Z,100675.39
2019-04-29T07:22:25.828Z,100678.52
2019-04-29T07:27:28.754Z,100670.00
2019-04-29T07:32:32.452Z,100669.09
2019-04-29T07:37:35.875Z,100665.09
2019-04-29T07:42:38.076Z,100655.55
2019-04-29T07:47:41.028Z,100649.03
2019-04-29T07:52:45.599Z,100653.66
2019-04-29T07:57:47.753Z,100656.29
2019-04-29T08:02:51.125Z,100648.89
2019-04-29T08:07:53.316Z,100650.13
2019-04-29T08:12:57.890Z,100660.87
2019-04-29T08:18:06.691Z,100659.42
2019-04-29T08:23:04.165Z,100653.59
2019-04-29T08:28:06.346Z,100650.14
2019-04-29T08:33:11.983Z,100641.57
2019-04-29T08:38:12.445Z,100623.42
2019-04-29T08:43:34.187Z,100604.94
2019-04-29T08:48:36.345Z,100601.38
2019-04-29T08:53:38.415Z,100612.50
2019-04-29T08:58:44.285Z,100622.69
2019-04-29T09:03:44.519Z,100620.69
2019-04-29T09:08:54.485Z,100614.95
2019-04-29T09:13:50.631Z,100607.02
2019-04-29T09:18:52.693Z,100609.02
2019-04-29T09:23:54.774Z,100589.41
2019-04-29T09:28:59.688Z,100580.63
2019-04-29T09:34:06.696Z,100584.48
2019-04-29T09:39:05.140Z,100573.54
2019-04-29T09:44:35.232Z,100575.33
2019-04-29T09:49:36.977Z,100568.96
2019-04-29T09:54:39.041Z,100571.17
2019-04-29T09:59:47.167Z,100570.02
2019-04-29T10:05:11.678Z,100571.96
2019-04-29T10:10:13.836Z,100562.89
2019-04-29T10:15:18.241Z,100551.82
2019-04-29T10:20:25.016Z,100555.30
2019-04-29T10:25:27.075Z,100556.31
2019-04-29T10:30:32.392Z,100559.63
2019-04-29T10:35:34.780Z,100556.58
2019-04-29T10:41:00.572Z,100559.29
2019-04-29T10:46:24.803Z,100557.97
2019-04-29T10:51:27.463Z,100543.43
2019-04-29T10:56:30.867Z,100532.45
2019-04-29T11:02:34.300Z,100542.41
2019-04-29T11:07:38.721Z,100536.89
2019-04-29T11:12:40.785Z,100522.22
2019-04-29T11:17:44.418Z,100510.39
2019-04-29T11:22:53.380Z,100507.64
2019-04-29T11:27:56.386Z,100499.02
2019-04-29T11:33:11.261Z,100491.13
2019-04-29T11:38:15.262Z,100493.84
2019-04-29T11:43:18.157Z,100481.26
2019-04-29T11:48:20.267Z,100481.85
2019-04-29T11:53:22.450Z,100478.41
2019-04-29T11:58:40.938Z,100488.93
2019-04-29T12:03:43.977Z,100480.63
2019-04-29T12:08:48.183Z,100478.76
2019-04-29T12:14:12.253Z,100474.00
2019-04-29T12:19:22.478Z,100476.55
2019-04-29T12:24:24.714Z,100477.23
2019-04-29T12:29:26.784Z,100474.31
2019-04-29T12:34:48.292Z,100477.48
2019-04-29T12:40:09.849Z,100472.88
2019-04-29T12:45:22.928Z,100469.83
2019-04-29T12:50:25.038Z,100477.92
2019-04-29T12:55:44.196Z,100465.18
2019-04-29T13:00:47.246Z,100461.06
2019-04-29T13:06:04.124Z,100461.17
2019-04-29T13:11:06.646Z,100462.52
2019-04-29T13:16:22.043Z,100464.43
2019-04-29T13:21:24.350Z,100458.50
2019-04-29T13:26:28.758Z,100460.02
2019-04-29T13:31:38.075Z,100455.69
2019-04-29T13:36:34.527Z,100457.23
2019-04-29T13:41:55.572Z,100454.42
2019-04-29T13:46:59.464Z,100447.44
2019-04-29T13:52:01.719Z,100452.09
2019-04-29T13:57:08.891Z,100451.20
2019-04-29T14:07:39.394Z,100441.32
2019-04-29T14:12:48.580Z,100440.05
2019-04-29T14:17:45.273Z,100437.81
2019-04-29T14:22:48.853Z,100427.67
2019-04-29T14:27:50.947Z,100433.19
2019-04-29T14:32:57.017Z,100423.52
2019-04-29T14:38:04.266Z,100420.50
2019-04-29T14:43:28.721Z,100428.09
2019-04-29T14:48:42.255Z,100419.73
2019-04-29T14:53:37.790Z,100419.03
2019-04-29T14:58:39.997Z,100426.75
2019-04-29T15:03:56.631Z,100424.28
2019-04-29T15:08:58.862Z,100424.36
2019-04-29T15:14:08.741Z,100434.95
2019-04-29T15:19:28.776Z,100435.70
2019-04-29T15:24:32.381Z,100428.48
2019-04-29T15:29:34.835Z,100435.27
2019-04-29T15:34:40.036Z,100435.97
2019-04-29T15:39:45.843Z,100433.04
2019-04-29T15:44:44.903Z,100431.39
2019-04-29T15:49:46.970Z,100429.77
2019-04-29T15:54:51.022Z,100431.11
2019-04-29T15:59:58.661Z,100438.97
2019-04-29T16:05:04.693Z,100457.39
2019-04-29T16:10:30.585Z,100448.24
2019-04-29T16:15:32.677Z,100453.06
2019-04-29T16:20:34.750Z,100447.63
2019-04-29T16:25:40.802Z,100453.66
2019-04-29T16:30:42.744Z,100443.89
2019-04-29T16:35:44.865Z,100442.73
2019-04-29T16:40:57.217Z,100449.20
2019-04-29T16:46:23.460Z,100444.80
2019-04-29T16:51:22.035Z,100448.64
2019-04-29T16:56:24.143Z,100441.02
2019-04-29T17:01:26.225Z,100446.80
2019-04-29T17:06:28.298Z,100449.63
2019-04-29T17:11:31.751Z,100451.77
2019-04-29T17:16:33.900Z,100451.61
2019-04-29T17:21:35.958Z,100455.39
2019-04-29T17:26:45.482Z,100460.77
2019-04-29T17:32:10.852Z,100462.56
2019-04-29T17:37:13.599Z,100462.90
2019-04-29T17:42:15.717Z,100471.02
2019-04-29T17:47:37.876Z,100470.92
2019-04-29T17:52:39.882Z,100478.52
2019-04-29T17:57:56.412Z,100467.63
2019-04-29T18:03:16.763Z,100460.12
2019-04-29T18:08:44.862Z,100464.56
2019-04-29T18:13:47.131Z,100463.42
2019-04-29T18:19:05.695Z,100464.21
2019-04-29T18:24:29.450Z,100463.20
2019-04-29T18:29:29.845Z,100462.22
2019-04-29T18:34:33.558Z,100466.84
2019-04-29T18:39:36.319Z,100469.67
2019-04-29T18:44:40.531Z,100471.43
2019-04-29T18:49:42.409Z,100470.87
2019-04-29T18:54:44.991Z,100473.52
2019-04-29T18:59:47.307Z,100480.44
2019-04-29T19:05:00.679Z,100486.04
2019-04-29T19:10:06.880Z,100487.61
2019-04-29T19:15:11.610Z,100495.04
2019-04-29T19:20:16.655Z,100498.72
2019-04-29T19:25:16.938Z,100499.67
2019-04-29T19:30:21.143Z,100506.39
2019-04-29T19:35:25.154Z,100509.30
2019-04-29T19:40:30.114Z,100516.00
2019-04-29T19:45:31.030Z,100518.20
2019-04-29T19:50:33.079Z,100519.48
2019-04-29T19:55:41.884Z,100528.66
2019-04-29T20:00:39.618Z,100519.21
2019-04-29T20:05:49.488Z,100524.38
2019-04-29T20:10:52.690Z,100523.73
2019-04-29T20:16:12.610Z,100521.03
2019-04-29T20:21:24.971Z,100531.41
2019-04-29T20:26:28.663Z,100532.48
2019-04-29T20:31:25.834Z,100537.70
2019-04-29T20:36:38.545Z,100539.73
2019-04-29T20:41:41.104Z,100545.38
2019-04-29T20:46:44.939Z,100540.55
2019-04-29T20:51:51.217Z,100538.84
2019-04-29T20:56:47.294Z,100548.81
2019-04-29T21:01:56.745Z,100556.32
2019-04-29T21:07:02.101Z,100554.58
2019-04-29T21:12:13.411Z,100551.30
2019-04-29T21:17:28.215Z,100555.66
2019-04-29T21:22:23.460Z,100557.89
2019-04-29T21:27:24.162Z,100558.73
2019-04-29T21:32:30.582Z,100562.96
2019-04-29T21:37:39.956Z,100560.34
2019-04-29T21:42:47.129Z,100567.27
2019-04-29T21:47:53.345Z,100569.28
2019-04-29T21:52:55.409Z,100573.56
2019-04-29T21:57:58.869Z,100574.66
2019-04-29T22:03:00.797Z,100572.09
2019-04-29T22:08:03.091Z,100571.91
2019-04-29T22:13:05.343Z,100579.16
2019-04-29T22:18:14.068Z,100584.38
2019-04-29T22:23:13.067Z,100589.23
2019-04-29T22:28:19.543Z,100589.59
2019-04-29T22:33:19.420Z,100589.22
2019-04-29T22:38:21.580Z,100592.77
2019-04-29T22:43:33.580Z,100589.04
2019-04-29T22:48:35.893Z,100591.27
2019-04-29T22:53:40.016Z,100593.88
2019-04-29T22:58:43.886Z,100595.28
2019-04-29T23:03:47.147Z,100599.09
2019-04-29T23:08:49.270Z,100602.73
2019-04-29T23:13:51.418Z,100601.43
2019-04-29T23:18:55.275Z,100599.80
2019-04-29T23:24:13.260Z,100598.42
2019-04-29T23:29:13.145Z,100594.36
2019-04-29T23:34:15.520Z,100609.48
2019-04-29T23:39:17.903Z,100609.39
2019-04-29T23:44:19.951Z,100608.70
2019-04-29T23:49:22.071Z,100604.67
2019-04-29T23:54:25.192Z,100605.88
2019-04-29T23:59:29.386Z,100602.57
